Lyndhurst, New Jersey
Current Conditions -  °F | °C
As of 1:05 PM on Monday 26 Jan 2015 (Local Time) from KTEB Reporting Station
Light Snow Light Snow  
Wind Chill: 12°   Ceiling: 3300
Heat Index: 23°   Visibility: 5mi
Dew Point: 16°   Wind: 10mph
Humidity: 74%   Direction: 40°NE
Pressure: 29.91"   Gusts: 18mph
Location:  40.81°N, 74.12°W
Report Text: KTEB 261805Z 04009G16KT 5SM -SN BR FEW019 OVC033 M05/M09 A2991 RMK AO2 P0000
Loading
Personal Weather Stations






























Interactive Weather Map New forecast layout! Learn more

10-Day Weather Forecast

Advertisements
Track Severe Weather on mobile